createdAt,value
2022-12-13T00:01:11.595Z,101403.94
2022-12-13T00:04:15.394Z,101393.72
2022-12-13T00:07:19.040Z,101394.63
2022-12-13T00:10:22.635Z,101386.06
2022-12-13T00:13:27.774Z,101381.69
2022-12-13T00:16:31.520Z,101391.16
2022-12-13T00:19:35.147Z,101388.72
2022-12-13T00:22:38.788Z,101387.81
2022-12-13T00:25:42.406Z,101392.19
2022-12-13T00:28:49.587Z,101387.81
2022-12-13T00:32:01.341Z,101384.72
2022-12-13T00:35:05.656Z,101382.50
2022-12-13T00:38:11.525Z,101385.91
2022-12-13T00:41:18.491Z,101381.84
2022-12-13T00:44:23.500Z,101381.72
2022-12-13T00:47:27.908Z,101375.81
2022-12-13T00:50:31.482Z,101379.56
2022-12-13T00:53:35.503Z,101377.25
2022-12-13T00:56:39.764Z,101376.31
2022-12-13T00:59:44.753Z,101378.81
2022-12-13T01:02:48.298Z,101374.00
2022-12-13T01:09:24.223Z,101366.16
2022-12-13T01:12:27.886Z,101368.91
2022-12-13T01:15:32.911Z,101358.44
2022-12-13T01:18:37.943Z,101359.97
2022-12-13T01:21:41.656Z,101354.59
2022-12-13T01:24:45.862Z,101358.69
2022-12-13T01:27:49.469Z,101351.34
2022-12-13T01:30:58.991Z,101359.81
2022-12-13T01:34:10.722Z,101354.56
2022-12-13T01:37:14.446Z,101363.03
2022-12-13T01:40:18.284Z,101360.47
2022-12-13T01:43:21.972Z,101364.13
2022-12-13T01:46:26.962Z,101363.28
2022-12-13T01:49:30.675Z,101355.63
2022-12-13T01:52:36.105Z,101353.34
2022-12-13T01:55:42.134Z,101348.28
2022-12-13T01:58:48.678Z,101348.09
2022-12-13T02:01:54.228Z,101344.72
2022-12-13T02:05:11.445Z,101349.72
2022-12-13T02:08:19.664Z,101342.91
2022-12-13T02:11:24.001Z,101347.47
2022-12-13T02:14:27.602Z,101353.31
2022-12-13T02:17:53.620Z,101349.50
2022-12-13T02:21:20.589Z,101339.19
2022-12-13T02:25:04.534Z,101340.66
2022-12-13T02:28:33.854Z,101348.97
2022-12-13T02:31:52.260Z,101347.03
2022-12-13T02:35:06.754Z,101341.09
2022-12-13T02:38:24.444Z,101340.25
2022-12-13T02:41:37.808Z,101346.19
2022-12-13T02:44:48.353Z,101339.03
2022-12-13T02:47:57.735Z,101338.19
2022-12-13T02:51:06.270Z,101334.72
2022-12-13T02:54:10.041Z,101333.81
2022-12-13T02:57:32.886Z,101326.59
2022-12-13T03:00:52.424Z,101323.72
2022-12-13T03:04:11.428Z,101325.50
2022-12-13T03:07:26.486Z,101321.78
2022-12-13T03:10:39.030Z,101323.81
2022-12-13T03:13:59.357Z,101319.19
2022-12-13T03:17:07.570Z,101315.97
2022-12-13T03:20:22.854Z,101309.66
2022-12-13T03:23:28.779Z,101309.59
2022-12-13T03:26:32.585Z,101311.94
2022-12-13T03:29:36.260Z,101317.06
2022-12-13T03:32:39.886Z,101314.97
2022-12-13T03:35:46.230Z,101314.19
2022-12-13T03:38:53.399Z,101303.31
2022-12-13T03:41:57.156Z,101310.19
2022-12-13T03:45:00.761Z,101306.25
2022-12-13T03:48:04.697Z,101304.56
2022-12-13T03:51:09.706Z,101303.22
2022-12-13T03:54:13.315Z,101301.25
2022-12-13T03:57:17.014Z,101300.00
2022-12-13T04:00:21.010Z,101301.63
2022-12-13T04:03:24.684Z,101300.00
2022-12-13T04:06:33.005Z,101302.22
2022-12-13T04:09:37.063Z,101307.19
2022-12-13T04:13:00.393Z,101302.69
2022-12-13T04:16:04.599Z,101291.66
2022-12-13T04:19:08.460Z,101292.34
2022-12-13T04:22:13.552Z,101281.41
2022-12-13T04:25:17.594Z,101280.41
2022-12-13T04:28:21.841Z,101282.66
2022-12-13T04:31:26.408Z,101277.56
2022-12-13T04:34:36.547Z,101279.53
2022-12-13T04:37:43.515Z,101276.19
2022-12-13T04:40:47.383Z,101274.03
2022-12-13T04:43:53.805Z,101269.47
2022-12-13T04:47:00.758Z,101271.41
2022-12-13T04:50:05.794Z,101274.28
2022-12-13T04:53:17.048Z,101265.47
2022-12-13T04:56:21.293Z,101265.16
2022-12-13T04:59:25.082Z,101258.44
2022-12-13T05:02:29.135Z,101260.41
2022-12-13T05:05:32.917Z,101264.56
2022-12-13T05:08:39.221Z,101260.16
2022-12-13T05:11:45.684Z,101270.22
2022-12-13T05:14:49.716Z,101265.50
2022-12-13T05:17:53.334Z,101271.06
2022-12-13T05:20:57.195Z,101273.78
2022-12-13T05:24:02.290Z,101266.81
2022-12-13T05:27:24.595Z,101260.53
2022-12-13T05:30:29.445Z,101255.25
2022-12-13T05:33:33.346Z,101252.59
2022-12-13T05:36:37.129Z,101258.09
2022-12-13T05:39:42.161Z,101261.44
2022-12-13T05:42:45.750Z,101262.63
2022-12-13T05:45:49.475Z,101260.81
2022-12-13T05:48:53.206Z,101252.91
2022-12-13T05:51:56.867Z,101250.16
2022-12-13T05:55:01.917Z,101246.75
2022-12-13T05:58:06.539Z,101250.22
2022-12-13T06:01:18.072Z,101261.69
2022-12-13T06:04:22.085Z,101254.41
2022-12-13T06:07:26.762Z,101249.59
2022-12-13T06:10:34.367Z,101263.44
2022-12-13T06:13:42.421Z,101262.81
2022-12-13T06:16:46.701Z,101258.63
2022-12-13T06:19:50.932Z,101261.25
2022-12-13T06:22:55.572Z,101263.97
2022-12-13T06:26:03.559Z,101266.22
2022-12-13T06:29:07.166Z,101271.59
2022-12-13T06:32:10.914Z,101268.03
2022-12-13T06:35:28.787Z,101269.84
2022-12-13T06:38:33.945Z,101273.41
2022-12-13T06:41:38.942Z,101275.47
2022-12-13T06:44:43.642Z,101275.59
2022-12-13T06:47:47.342Z,101278.44
2022-12-13T06:50:50.980Z,101276.09
2022-12-13T06:53:55.165Z,101285.63
2022-12-13T06:57:00.460Z,101280.13
2022-12-13T07:00:05.760Z,101283.47
2022-12-13T07:03:11.181Z,101276.84
2022-12-13T07:06:18.194Z,101275.75
2022-12-13T07:09:22.045Z,101279.31
2022-12-13T07:12:27.214Z,101286.09
2022-12-13T07:15:35.505Z,101276.44
2022-12-13T07:18:39.325Z,101273.47
2022-12-13T07:21:43.540Z,101284.31
2022-12-13T07:24:47.162Z,101281.94
2022-12-13T07:28:01.470Z,101284.66
2022-12-13T07:31:09.975Z,101277.28
2022-12-13T07:34:15.709Z,101280.13
2022-12-13T07:37:29.988Z,101283.22
2022-12-13T07:40:35.414Z,101287.53
2022-12-13T07:43:40.909Z,101297.00
2022-12-13T07:46:44.747Z,101293.22
2022-12-13T07:49:48.903Z,101290.38
2022-12-13T07:52:53.040Z,101288.63
2022-12-13T07:55:56.768Z,101291.69
2022-12-13T07:59:01.815Z,101290.88
2022-12-13T08:02:06.852Z,101306.25
2022-12-13T08:05:26.404Z,101300.97
2022-12-13T08:08:32.102Z,101291.47
2022-12-13T08:11:36.037Z,101300.41
2022-12-13T08:14:44.232Z,101300.56
2022-12-13T08:17:47.939Z,101296.81
2022-12-13T08:20:51.562Z,101300.19
2022-12-13T08:23:55.189Z,101297.19
2022-12-13T08:27:02.429Z,101299.13
2022-12-13T08:30:09.968Z,101294.75
2022-12-13T08:33:13.773Z,101291.59
2022-12-13T08:36:19.022Z,101283.94
2022-12-13T08:39:22.647Z,101277.84
2022-12-13T08:42:26.250Z,101279.47
2022-12-13T08:45:34.283Z,101285.63
2022-12-13T08:48:44.331Z,101284.44
2022-12-13T08:51:48.943Z,101283.06
2022-12-13T08:54:52.859Z,101280.84
2022-12-13T08:57:57.996Z,101287.91
2022-12-13T09:01:09.020Z,101305.06
2022-12-13T09:04:12.814Z,101304.41
2022-12-13T09:07:16.565Z,101310.59
2022-12-13T09:10:26.265Z,101309.03
2022-12-13T09:13:33.323Z,101313.34
2022-12-13T09:16:39.138Z,101309.47
2022-12-13T09:19:43.121Z,101312.09
2022-12-13T09:22:46.828Z,101314.19
2022-12-13T09:26:04.870Z,101317.59
2022-12-13T09:29:11.387Z,101315.84
2022-12-13T09:32:16.966Z,101319.22
2022-12-13T09:35:20.928Z,101320.34
2022-12-13T09:38:24.719Z,101325.56
2022-12-13T09:41:34.909Z,101324.25
2022-12-13T09:45:02.138Z,101321.16
2022-12-13T09:48:13.367Z,101318.88
2022-12-13T09:51:28.384Z,101321.88
2022-12-13T09:54:48.180Z,101316.94
2022-12-13T09:57:54.495Z,101322.00
2022-12-13T10:01:00.515Z,101320.97
2022-12-13T10:04:12.905Z,101310.16
2022-12-13T10:07:22.137Z,101304.28
2022-12-13T10:10:26.687Z,101305.97
2022-12-13T10:13:42.870Z,101306.22
2022-12-13T10:16:52.324Z,101304.69
2022-12-13T10:19:57.351Z,101291.88
2022-12-13T10:23:31.230Z,101288.41
2022-12-13T10:26:25.343Z,101283.44
2022-12-13T10:29:29.037Z,101287.41
2022-12-13T10:32:37.770Z,101288.41
2022-12-13T10:35:45.212Z,101276.41
2022-12-13T10:38:50.729Z,101282.78
2022-12-13T10:42:06.062Z,101284.66
2022-12-13T10:45:23.580Z,101281.56
2022-12-13T10:48:38.967Z,101277.16
2022-12-13T10:51:45.019Z,101270.16
2022-12-13T10:54:51.955Z,101273.63
2022-12-13T10:58:09.628Z,101266.59
2022-12-13T11:01:24.005Z,101259.16
2022-12-13T11:04:32.134Z,101265.06
2022-12-13T11:07:37.487Z,101261.00
2022-12-13T11:10:41.474Z,101262.16
2022-12-13T11:13:52.301Z,101259.41
2022-12-13T11:17:01.201Z,101252.28
2022-12-13T11:20:18.882Z,101252.50
2022-12-13T11:23:31.301Z,101253.22
2022-12-13T11:26:39.658Z,101257.75
2022-12-13T11:30:10.074Z,101251.50
2022-12-13T11:33:27.982Z,101245.25
2022-12-13T11:36:43.703Z,101238.38
2022-12-13T11:40:01.030Z,101237.63
2022-12-13T11:43:17.654Z,101235.63
2022-12-13T11:46:32.321Z,101240.28
2022-12-13T11:49:42.787Z,101226.69
2022-12-13T11:52:53.281Z,101223.16
2022-12-13T11:56:07.457Z,101224.03
2022-12-13T11:59:29.192Z,101217.84
2022-12-13T12:02:37.324Z,101215.47
2022-12-13T12:05:49.018Z,101218.19
2022-12-13T12:09:03.657Z,101209.09
2022-12-13T12:12:22.065Z,101207.91
2022-12-13T12:15:33.878Z,101188.41
2022-12-13T12:18:45.925Z,101202.53
2022-12-13T12:22:14.993Z,101190.06
2022-12-13T12:25:36.846Z,101189.19
2022-12-13T12:29:11.921Z,101191.34
2022-12-13T12:32:33.405Z,101192.91
2022-12-13T12:35:56.695Z,101190.66
2022-12-13T12:39:27.120Z,101190.81
2022-12-13T12:47:08.577Z,101180.78
2022-12-13T12:50:34.552Z,101193.47
2022-12-13T12:53:48.008Z,101189.75
2022-12-13T12:57:03.545Z,101186.00
2022-12-13T13:00:15.608Z,101188.34
2022-12-13T13:03:25.570Z,101184.88
2022-12-13T13:06:35.915Z,101186.63
2022-12-13T13:09:41.766Z,101180.91
2022-12-13T13:12:46.206Z,101171.28
2022-12-13T13:15:58.331Z,101176.50
2022-12-13T13:19:04.527Z,101174.97
2022-12-13T13:22:34.296Z,101181.06
2022-12-13T13:29:43.699Z,101171.44
2022-12-13T13:32:49.202Z,101173.81
2022-12-13T13:35:56.857Z,101164.25
2022-12-13T13:39:01.307Z,101173.66
2022-12-13T13:42:20.038Z,101173.81
2022-12-13T13:45:26.998Z,101176.19
2022-12-13T13:48:54.271Z,101179.56
2022-12-13T13:52:27.276Z,101171.75
2022-12-13T13:55:55.872Z,101162.38
2022-12-13T13:59:44.714Z,101167.56
2022-12-13T14:03:48.122Z,101170.97
2022-12-13T14:07:34.821Z,101157.28
2022-12-13T14:11:02.096Z,101163.13
2022-12-13T14:15:01.136Z,101151.94
2022-12-13T14:18:55.759Z,101152.59
2022-12-13T14:22:18.654Z,101156.25
2022-12-13T14:26:01.313Z,101158.59
2022-12-13T14:29:14.598Z,101159.44
2022-12-13T14:32:26.618Z,101161.00
2022-12-13T14:35:34.418Z,101157.50
2022-12-13T14:38:39.623Z,101154.72
2022-12-13T14:41:48.013Z,101157.59
2022-12-13T14:44:51.933Z,101148.25
2022-12-13T14:47:58.422Z,101162.44
2022-12-13T14:51:02.339Z,101160.56
2022-12-13T14:54:21.142Z,101157.19
2022-12-13T14:57:31.173Z,101163.72
2022-12-13T15:00:40.778Z,101158.56
2022-12-13T15:03:44.708Z,101160.97
2022-12-13T15:06:55.582Z,101162.56
2022-12-13T15:10:04.535Z,101156.41
2022-12-13T15:13:19.576Z,101169.94
2022-12-13T15:16:28.128Z,101162.91
2022-12-13T15:19:36.266Z,101155.97
2022-12-13T15:22:42.941Z,101152.28
2022-12-13T15:25:51.195Z,101152.00
2022-12-13T15:28:59.853Z,101161.59
2022-12-13T15:32:05.651Z,101150.03
2022-12-13T15:35:17.790Z,101162.50
2022-12-13T15:38:28.804Z,101160.69
2022-12-13T15:41:43.024Z,101166.47
2022-12-13T15:44:52.571Z,101158.66
2022-12-13T15:47:56.961Z,101161.34
2022-12-13T15:51:13.129Z,101152.56
2022-12-13T15:54:33.154Z,101159.22
2022-12-13T15:57:52.422Z,101158.22
2022-12-13T16:00:56.064Z,101156.34
2022-12-13T16:04:03.592Z,101160.28
2022-12-13T16:07:07.630Z,101150.78
2022-12-13T16:10:20.826Z,101145.44
2022-12-13T16:13:29.753Z,101141.25
2022-12-13T16:16:33.812Z,101138.88
2022-12-13T16:19:37.773Z,101128.53
2022-12-13T16:22:42.148Z,101127.75
2022-12-13T16:25:46.253Z,101127.81
2022-12-13T16:28:51.656Z,101118.31
2022-12-13T16:32:01.506Z,101118.88
2022-12-13T16:35:12.062Z,101116.13
2022-12-13T16:38:26.077Z,101117.06
2022-12-13T16:41:30.850Z,101105.25
2022-12-13T16:44:38.985Z,101101.75
2022-12-13T16:47:48.550Z,101096.53
2022-12-13T16:50:57.458Z,101092.03
2022-12-13T16:54:01.463Z,101092.94
2022-12-13T16:57:05.433Z,101097.06
2022-12-13T17:00:14.548Z,101104.38
2022-12-13T17:03:18.138Z,101104.22
2022-12-13T17:06:25.549Z,101098.84
2022-12-13T17:09:29.190Z,101102.16
2022-12-13T17:12:32.782Z,101106.97
2022-12-13T17:15:38.945Z,101105.13
2022-12-13T17:18:42.756Z,101097.63
2022-12-13T17:21:46.511Z,101090.00
2022-12-13T17:24:50.273Z,101090.09
2022-12-13T17:27:53.991Z,101083.25
2022-12-13T17:31:08.682Z,101086.72
2022-12-13T17:34:12.488Z,101075.25
2022-12-13T17:37:16.170Z,101080.75
2022-12-13T17:40:20.204Z,101089.66
2022-12-13T17:43:33.089Z,101083.69
2022-12-13T17:46:39.283Z,101089.03
2022-12-13T17:49:42.909Z,101089.47
2022-12-13T17:52:46.502Z,101094.28
2022-12-13T17:55:57.919Z,101095.72
2022-12-13T17:59:01.576Z,101101.19
2022-12-13T18:02:07.055Z,101099.75
2022-12-13T18:05:17.718Z,101101.03
2022-12-13T18:08:21.552Z,101096.41
2022-12-13T18:11:34.032Z,101099.69
2022-12-13T18:14:39.063Z,101096.34
2022-12-13T18:18:10.692Z,101096.34
2022-12-13T18:21:10.315Z,101095.50
2022-12-13T18:24:14.276Z,101088.94
2022-12-13T18:27:17.941Z,101079.47
2022-12-13T18:30:22.058Z,101076.25
2022-12-13T18:33:27.615Z,101070.34
2022-12-13T18:36:31.746Z,101069.19
2022-12-13T18:39:36.053Z,101073.19
2022-12-13T18:42:39.794Z,101069.69
2022-12-13T18:45:43.557Z,101070.59
2022-12-13T18:48:49.048Z,101070.69
2022-12-13T18:51:52.789Z,101068.78
2022-12-13T18:54:56.510Z,101060.22
2022-12-13T18:58:00.724Z,101060.47
2022-12-13T19:01:05.701Z,101069.22
2022-12-13T19:04:12.702Z,101064.81
2022-12-13T19:07:16.570Z,101071.31
2022-12-13T19:10:20.526Z,101064.94
2022-12-13T19:13:26.450Z,101053.22
2022-12-13T19:16:30.473Z,101057.47
2022-12-13T19:19:35.717Z,101045.59
2022-12-13T19:22:39.795Z,101052.44
2022-12-13T19:25:43.740Z,101044.66
2022-12-13T19:28:48.406Z,101043.31
2022-12-13T19:31:52.405Z,101044.28
2022-12-13T19:34:57.458Z,101042.59
2022-12-13T19:38:01.766Z,101040.75
2022-12-13T19:41:10.096Z,101043.09
2022-12-13T19:44:13.774Z,101035.28
2022-12-13T19:47:17.722Z,101031.94
2022-12-13T19:50:23.043Z,101018.25
2022-12-13T19:53:27.054Z,101023.53
2022-12-13T19:56:30.987Z,101012.34
2022-12-13T19:59:34.613Z,101014.84
2022-12-13T20:02:38.726Z,101008.03
2022-12-13T20:05:45.792Z,101014.06
2022-12-13T20:08:51.855Z,101008.84
2022-12-13T20:11:55.583Z,101006.59
2022-12-13T20:15:01.133Z,101007.00
2022-12-13T20:18:05.006Z,101006.78
2022-12-13T20:21:14.608Z,101003.19
2022-12-13T20:24:18.954Z,101002.53
2022-12-13T20:27:22.844Z,101002.38
2022-12-13T20:30:27.674Z,101004.44
2022-12-13T20:33:31.629Z,101000.81
2022-12-13T20:36:37.894Z,100999.56
2022-12-13T20:39:42.281Z,100997.16
2022-12-13T20:42:46.299Z,100996.38
2022-12-13T20:45:49.967Z,100997.53
2022-12-13T20:48:55.224Z,100995.06
2022-12-13T20:52:00.230Z,100989.16
2022-12-13T20:55:03.897Z,100984.81
2022-12-13T20:58:07.547Z,100982.25
2022-12-13T21:01:17.915Z,100982.31
2022-12-13T21:04:21.842Z,100981.50
2022-12-13T21:07:40.678Z,100977.22
2022-12-13T21:10:44.245Z,100978.81
2022-12-13T21:13:48.331Z,100967.59
2022-12-13T21:16:54.199Z,100972.50
2022-12-13T21:19:57.891Z,100965.47
2022-12-13T21:23:03.682Z,100966.44
2022-12-13T21:26:08.335Z,100953.56
2022-12-13T21:29:13.693Z,100950.81
2022-12-13T21:32:17.332Z,100952.19
2022-12-13T21:35:20.915Z,100958.69
2022-12-13T21:38:26.065Z,100948.28
2022-12-13T21:41:30.288Z,100952.38
2022-12-13T21:44:33.882Z,100952.31
2022-12-13T21:47:37.470Z,100949.41
2022-12-13T21:50:41.058Z,100946.81
2022-12-13T21:53:46.841Z,100945.72
2022-12-13T21:57:07.969Z,100944.47
2022-12-13T22:00:13.220Z,100936.22
2022-12-13T22:03:16.978Z,100933.94
2022-12-13T22:06:20.607Z,100929.59
2022-12-13T22:09:25.769Z,100923.00
2022-12-13T22:12:36.038Z,100920.28
2022-12-13T22:15:39.635Z,100917.66
2022-12-13T22:18:43.255Z,100909.47
2022-12-13T22:21:46.861Z,100911.34
2022-12-13T22:24:53.794Z,100907.13
2022-12-13T22:27:57.575Z,100903.13
2022-12-13T22:31:01.143Z,100904.53
2022-12-13T22:34:04.862Z,100904.31
2022-12-13T22:37:08.590Z,100895.88
2022-12-13T22:40:14.415Z,100902.59
2022-12-13T22:43:20.647Z,100899.13
2022-12-13T22:46:24.730Z,100892.06
2022-12-13T22:49:28.513Z,100893.44
2022-12-13T22:52:34.170Z,100889.50
2022-12-13T22:55:39.841Z,100896.00
2022-12-13T22:58:44.007Z,100884.09
2022-12-13T23:01:48.007Z,100890.16
2022-12-13T23:04:51.590Z,100886.31
2022-12-13T23:07:55.178Z,100889.16
2022-12-13T23:11:19.112Z,100892.88
2022-12-13T23:14:30.008Z,100883.47
2022-12-13T23:17:33.647Z,100884.97
2022-12-13T23:20:37.246Z,100878.22
2022-12-13T23:23:41.435Z,100879.03
2022-12-13T23:26:46.391Z,100875.72
2022-12-13T23:29:50.255Z,100872.06
2022-12-13T23:32:53.782Z,100860.81
2022-12-13T23:36:06.297Z,100859.63
2022-12-13T23:39:13.233Z,100857.81
2022-12-13T23:42:18.181Z,100855.91
2022-12-13T23:45:40.729Z,100854.56
2022-12-13T23:48:46.038Z,100853.47
2022-12-13T23:51:49.605Z,100844.03
2022-12-13T23:54:53.298Z,100843.22
2022-12-13T23:57:58.307Z,100843.81
